createdAt,value
2018-04-22T00:00:57.630Z,13.37
2018-04-22T00:03:26.319Z,13.34
2018-04-22T00:05:54.975Z,13.14
2018-04-22T00:08:23.674Z,13.02
2018-04-22T00:10:52.295Z,12.91
2018-04-22T00:13:21.063Z,12.81
2018-04-22T00:15:50.201Z,12.72
2018-04-22T00:18:19.588Z,12.67
2018-04-22T00:20:48.357Z,12.69
2018-04-22T00:23:17.041Z,12.70
2018-04-22T00:25:45.745Z,12.71
2018-04-22T00:28:14.353Z,12.65
2018-04-22T00:30:42.983Z,12.65
2018-04-22T00:33:11.558Z,12.62
2018-04-22T00:35:40.146Z,12.61
2018-04-22T00:38:08.896Z,12.58
2018-04-22T00:40:37.482Z,12.60
2018-04-22T00:43:06.280Z,12.52
2018-04-22T00:45:34.949Z,12.45
2018-04-22T00:48:04.611Z,12.36
2018-04-22T00:50:33.814Z,12.34
2018-04-22T00:53:02.538Z,12.29
2018-04-22T00:55:31.205Z,12.26
2018-04-22T00:58:00.596Z,12.27
2018-04-22T01:00:29.199Z,12.34
2018-04-22T01:02:57.783Z,12.41
2018-04-22T01:05:26.354Z,12.38
2018-04-22T01:07:55.748Z,12.27
2018-04-22T01:10:25.131Z,12.20
2018-04-22T01:12:53.699Z,12.07
2018-04-22T01:15:23.140Z,11.86
2018-04-22T01:17:51.791Z,11.73
2018-04-22T01:20:21.316Z,11.68
2018-04-22T01:22:50.616Z,11.67
2018-04-22T01:25:19.281Z,11.66
2018-04-22T01:27:48.599Z,11.59
2018-04-22T01:30:17.258Z,11.50
2018-04-22T01:32:45.824Z,11.42
2018-04-22T01:35:14.613Z,11.35
2018-04-22T01:37:43.167Z,11.34
2018-04-22T01:40:11.741Z,11.33
2018-04-22T01:42:41.482Z,11.33
2018-04-22T01:45:10.911Z,11.34
2018-04-22T01:47:39.560Z,11.30
2018-04-22T01:50:08.811Z,11.29
2018-04-22T01:52:38.629Z,11.30
2018-04-22T01:55:07.539Z,11.31
2018-04-22T01:57:36.195Z,11.33
2018-04-22T02:00:04.896Z,11.31
2018-04-22T02:02:33.645Z,11.29
2018-04-22T02:05:02.180Z,11.23
2018-04-22T02:07:30.757Z,11.20
2018-04-22T02:09:59.267Z,11.23
2018-04-22T02:12:27.903Z,11.22
2018-04-22T02:14:57.270Z,11.20
2018-04-22T02:17:25.903Z,11.18
2018-04-22T02:19:54.477Z,11.18
2018-04-22T02:22:23.198Z,11.28
2018-04-22T02:24:52.313Z,11.37
2018-04-22T02:27:21.292Z,11.35
2018-04-22T02:29:49.976Z,11.26
2018-04-22T02:32:18.650Z,11.13
2018-04-22T02:34:48.094Z,11.09
2018-04-22T02:37:16.806Z,11.14
2018-04-22T02:39:45.431Z,11.12
2018-04-22T02:42:14.768Z,10.93
2018-04-22T02:44:44.322Z,10.80
2018-04-22T02:47:12.965Z,10.69
2018-04-22T02:49:41.591Z,10.56
2018-04-22T02:52:11.051Z,10.44
2018-04-22T02:54:39.982Z,10.32
2018-04-22T02:57:09.133Z,10.26
2018-04-22T02:59:38.216Z,10.25
2018-04-22T03:02:06.799Z,10.29
2018-04-22T03:04:35.385Z,10.30
2018-04-22T03:07:03.976Z,10.35
2018-04-22T03:09:33.421Z,10.41
2018-04-22T03:12:01.999Z,10.46
2018-04-22T03:14:30.631Z,10.47
2018-04-22T03:16:59.390Z,10.52
2018-04-22T03:19:28.070Z,10.64
2018-04-22T03:21:56.835Z,10.71
2018-04-22T03:24:25.506Z,10.76
2018-04-22T03:26:54.228Z,10.75
2018-04-22T03:29:23.203Z,10.65
2018-04-22T03:31:53.597Z,10.51
2018-04-22T03:34:22.220Z,10.61
2018-04-22T03:36:51.543Z,10.64
2018-04-22T03:39:20.992Z,10.64
2018-04-22T03:41:49.767Z,10.48
2018-04-22T03:44:19.079Z,10.36
2018-04-22T03:46:47.789Z,10.30
2018-04-22T03:49:16.383Z,10.25
2018-04-22T03:51:45.013Z,10.39
2018-04-22T03:54:14.334Z,10.44
2018-04-22T03:56:44.238Z,10.44
2018-04-22T03:59:13.433Z,10.45
2018-04-22T04:01:42.373Z,10.43
2018-04-22T04:04:10.923Z,10.37
2018-04-22T04:06:40.381Z,10.22
2018-04-22T04:09:09.067Z,10.01
2018-04-22T04:11:37.646Z,9.85
2018-04-22T04:14:06.218Z,9.70
2018-04-22T04:16:34.898Z,9.63
2018-04-22T04:19:21.499Z,9.61
2018-04-22T04:22:07.819Z,9.65
2018-04-22T04:24:54.327Z,9.71
2018-04-22T04:30:26.854Z,9.81
2018-04-22T04:32:55.445Z,9.81
2018-04-22T04:35:24.154Z,9.79
2018-04-22T04:37:52.805Z,9.79
2018-04-22T04:40:21.386Z,9.74
2018-04-22T04:42:50.037Z,9.72
2018-04-22T04:45:18.704Z,9.69
2018-04-22T04:47:48.286Z,9.69
2018-04-22T04:50:17.189Z,9.74
2018-04-22T04:52:46.220Z,9.69
2018-04-22T04:55:15.109Z,9.70
2018-04-22T04:57:43.799Z,9.77
2018-04-22T05:00:12.589Z,9.88
2018-04-22T05:02:41.160Z,10.01
2018-04-22T05:05:09.718Z,10.15
2018-04-22T05:07:38.446Z,10.26
2018-04-22T05:10:07.022Z,10.33
2018-04-22T05:12:36.532Z,10.28
2018-04-22T05:15:05.996Z,10.31
2018-04-22T05:17:34.780Z,10.33
2018-04-22T05:20:04.215Z,10.49
2018-04-22T05:22:33.340Z,11.14
2018-04-22T05:25:02.534Z,11.83
2018-04-22T05:27:32.749Z,12.46
2018-04-22T05:30:01.547Z,13.07
2018-04-22T05:32:30.346Z,13.66
2018-04-22T05:34:58.996Z,14.09
2018-04-22T05:37:28.390Z,14.48
2018-04-22T05:39:57.170Z,14.87
2018-04-22T05:42:25.966Z,15.27
2018-04-22T05:44:54.669Z,15.45
2018-04-22T05:47:24.166Z,15.66
2018-04-22T05:49:53.296Z,16.27
2018-04-22T05:52:22.676Z,16.45
2018-04-22T05:54:52.186Z,17.09
2018-04-22T05:57:22.481Z,17.24
2018-04-22T05:59:52.106Z,17.87
2018-04-22T06:02:21.724Z,18.34
2018-04-22T06:04:50.388Z,18.60
2018-04-22T06:07:19.053Z,19.04
2018-04-22T06:09:47.698Z,19.35
2018-04-22T06:12:16.515Z,19.72
2018-04-22T06:14:45.180Z,19.97
2018-04-22T06:17:14.598Z,20.29
2018-04-22T06:19:44.160Z,20.35
2018-04-22T06:22:13.897Z,20.77
2018-04-22T06:24:43.158Z,21.26
2018-04-22T06:27:11.917Z,21.59
2018-04-22T06:29:40.866Z,21.84
2018-04-22T06:32:10.290Z,22.34
2018-04-22T06:34:39.587Z,22.52
2018-04-22T06:37:08.426Z,22.61
2018-04-22T06:39:37.184Z,22.62
2018-04-22T06:42:05.958Z,22.62
2018-04-22T06:44:34.845Z,22.91
2018-04-22T06:47:03.551Z,23.22
2018-04-22T06:49:32.644Z,23.46
2018-04-22T06:52:03.140Z,23.42
2018-04-22T06:54:33.257Z,23.86
2018-04-22T06:57:02.464Z,24.13
2018-04-22T06:59:31.714Z,24.45
2018-04-22T07:02:00.627Z,23.44
2018-04-22T07:04:29.812Z,24.51
2018-04-22T07:06:58.596Z,25.28
2018-04-22T07:09:28.063Z,24.36
2018-04-22T07:11:56.771Z,24.83
2018-04-22T07:14:25.711Z,24.89
2018-04-22T07:16:55.980Z,25.25
2018-04-22T07:19:25.930Z,25.58
2018-04-22T07:21:55.601Z,25.59
2018-04-22T07:24:24.511Z,26.38
2018-04-22T07:26:53.182Z,26.78
2018-04-22T07:29:22.053Z,26.38
2018-04-22T07:31:51.541Z,25.57
2018-04-22T07:34:20.205Z,26.67
2018-04-22T07:36:49.718Z,26.88
2018-04-22T07:39:19.194Z,25.64
2018-04-22T07:41:47.938Z,26.93
2018-04-22T07:44:16.696Z,26.69
2018-04-22T07:46:45.357Z,25.65
2018-04-22T07:49:14.336Z,25.18
2018-04-22T07:51:43.720Z,26.14
2018-04-22T07:54:13.863Z,27.11
2018-04-22T07:56:43.521Z,27.98
2018-04-22T07:59:12.331Z,28.26
2018-04-22T08:01:41.079Z,28.34
2018-04-22T08:04:09.665Z,28.87
2018-04-22T08:06:38.350Z,29.69
2018-04-22T08:09:07.020Z,29.69
2018-04-22T08:11:36.674Z,30.08
2018-04-22T08:14:05.764Z,30.68
2018-04-22T08:16:35.294Z,29.01
2018-04-22T08:19:04.883Z,30.49
2018-04-22T08:21:34.231Z,26.14
2018-04-22T08:24:03.642Z,25.86
2018-04-22T08:26:32.370Z,26.36
2018-04-22T08:29:01.078Z,26.87
2018-04-22T08:31:30.530Z,24.91
2018-04-22T08:33:59.266Z,25.95
2018-04-22T08:36:28.258Z,27.27
2018-04-22T08:38:56.970Z,26.27
2018-04-22T08:41:25.732Z,25.13
2018-04-22T08:43:54.434Z,25.98
2018-04-22T08:46:23.095Z,27.29
2018-04-22T08:48:52.108Z,25.99
2018-04-22T08:51:21.375Z,25.66
2018-04-22T08:53:50.941Z,26.90
2018-04-22T08:56:19.898Z,25.18
2018-04-22T08:58:48.485Z,25.35
2018-04-22T09:01:17.282Z,25.92
2018-04-22T09:03:45.904Z,25.34
2018-04-22T09:06:14.611Z,27.37
2018-04-22T09:08:43.267Z,25.74
2018-04-22T09:11:12.834Z,26.43
2018-04-22T09:13:41.500Z,26.88
2018-04-22T09:16:10.742Z,27.02
2018-04-22T09:18:39.538Z,27.56
2018-04-22T09:21:08.789Z,28.33
2018-04-22T09:23:38.033Z,27.30
2018-04-22T09:26:09.635Z,29.97
2018-04-22T09:28:39.449Z,29.59
2018-04-22T09:31:08.586Z,30.45
2018-04-22T09:33:37.850Z,31.38
2018-04-22T09:36:06.483Z,31.26
2018-04-22T09:38:35.258Z,31.63
2018-04-22T09:41:03.958Z,30.67
2018-04-22T09:43:32.704Z,31.51
2018-04-22T09:46:01.475Z,31.97
2018-04-22T09:48:30.368Z,32.45
2018-04-22T09:50:59.929Z,33.32
2018-04-22T09:53:29.677Z,34.41
2018-04-22T09:56:00.530Z,33.93
2018-04-22T09:58:29.441Z,33.96
2018-04-22T10:01:00.985Z,33.43
2018-04-22T10:03:32.280Z,34.07
2018-04-22T10:06:02.766Z,34.49
2018-04-22T10:08:31.457Z,32.27
2018-04-22T10:11:00.047Z,31.85
2018-04-22T10:13:28.758Z,32.71
2018-04-22T10:15:57.442Z,32.47
2018-04-22T10:18:26.685Z,32.70
2018-04-22T10:20:56.356Z,33.52
2018-04-22T10:23:25.947Z,33.56
2018-04-22T10:25:54.672Z,34.36
2018-04-22T10:28:23.280Z,33.72
2018-04-22T10:30:51.933Z,33.07
2018-04-22T10:33:20.613Z,33.58
2018-04-22T10:35:51.193Z,33.81
2018-04-22T10:38:19.793Z,33.35
2018-04-22T10:40:49.207Z,33.95
2018-04-22T10:43:18.744Z,31.24
2018-04-22T10:45:47.800Z,31.88
2018-04-22T10:48:17.215Z,32.85
2018-04-22T10:50:46.352Z,33.71
2018-04-22T10:53:15.123Z,34.05
2018-04-22T10:55:44.114Z,34.48
2018-04-22T10:58:13.095Z,34.93
2018-04-22T11:00:41.820Z,35.46
2018-04-22T11:03:10.529Z,34.99
2018-04-22T11:05:39.236Z,35.21
2018-04-22T11:08:08.909Z,35.52
2018-04-22T11:10:37.808Z,36.00
2018-04-22T11:13:06.469Z,35.93
2018-04-22T11:15:35.782Z,35.93
2018-04-22T11:18:06.261Z,35.93
2018-04-22T11:20:35.624Z,35.83
2018-04-22T11:23:04.767Z,35.64
2018-04-22T11:25:33.760Z,35.85
2018-04-22T11:28:02.600Z,35.42
2018-04-22T11:30:32.103Z,34.74
2018-04-22T11:33:00.686Z,34.27
2018-04-22T11:35:29.488Z,34.57
2018-04-22T11:37:58.910Z,32.17
2018-04-22T11:40:27.730Z,31.55
2018-04-22T11:42:57.301Z,31.34
2018-04-22T11:45:25.920Z,30.70
2018-04-22T11:47:54.952Z,30.35
2018-04-22T11:51:13.471Z,29.83
2018-04-22T11:53:43.222Z,29.52
2018-04-22T11:56:11.942Z,29.23
2018-04-22T11:58:40.583Z,29.87
2018-04-22T12:01:09.274Z,29.98
2018-04-22T12:03:38.006Z,30.18
2018-04-22T12:06:06.981Z,30.07
2018-04-22T12:08:35.777Z,29.66
2018-04-22T12:11:05.761Z,30.13
2018-04-22T12:13:35.285Z,31.11
2018-04-22T12:16:05.354Z,30.81
2018-04-22T12:18:34.813Z,30.49
2018-04-22T12:21:03.896Z,29.81
2018-04-22T12:23:33.035Z,30.03
2018-04-22T12:26:01.862Z,29.80
2018-04-22T12:28:30.702Z,29.27
2018-04-22T12:31:00.553Z,29.28
2018-04-22T12:33:29.441Z,29.56
2018-04-22T12:35:59.892Z,30.87
2018-04-22T12:38:29.574Z,32.07
2018-04-22T12:40:59.609Z,31.65
2018-04-22T12:43:28.572Z,30.92
2018-04-22T12:45:57.798Z,31.11
2018-04-22T12:48:28.498Z,31.33
2018-04-22T12:50:57.756Z,30.50
2018-04-22T12:53:26.597Z,29.64
2018-04-22T12:55:57.130Z,29.40
2018-04-22T12:58:28.058Z,29.69
2018-04-22T13:00:57.959Z,30.63
2018-04-22T13:03:29.748Z,30.63
2018-04-22T13:05:59.187Z,30.21
2018-04-22T13:08:28.275Z,29.76
2018-04-22T13:10:58.956Z,29.47
2018-04-22T13:13:28.640Z,29.68
2018-04-22T13:15:58.434Z,30.50
2018-04-22T13:18:27.736Z,30.56
2018-04-22T13:20:57.196Z,29.76
2018-04-22T13:23:26.523Z,29.17
2018-04-22T13:25:55.685Z,29.31
2018-04-22T13:28:27.613Z,29.44
2018-04-22T13:30:57.126Z,28.89
2018-04-22T13:33:26.193Z,29.17
2018-04-22T13:35:56.639Z,29.82
2018-04-22T13:38:26.006Z,30.69
2018-04-22T13:40:56.923Z,31.41
2018-04-22T13:43:26.795Z,32.40
2018-04-22T13:45:56.087Z,32.77
2018-04-22T13:48:25.240Z,32.47
2018-04-22T13:50:54.838Z,32.40
2018-04-22T13:53:25.407Z,31.68
2018-04-22T13:55:56.718Z,31.81
2018-04-22T13:58:26.638Z,32.48
2018-04-22T14:00:56.419Z,32.84
2018-04-22T14:03:25.794Z,33.20
2018-04-22T14:05:55.682Z,33.67
2018-04-22T14:08:24.550Z,33.69
2018-04-22T14:10:55.648Z,33.79
2018-04-22T14:13:24.410Z,33.65
2018-04-22T14:15:53.412Z,33.80
2018-04-22T14:18:23.922Z,33.91
2018-04-22T14:20:53.237Z,33.92
2018-04-22T14:23:24.506Z,33.60
2018-04-22T14:25:53.760Z,33.77
2018-04-22T14:28:23.463Z,33.25
2018-04-22T14:30:53.084Z,32.92
2018-04-22T14:33:22.431Z,32.87
2018-04-22T14:35:52.660Z,32.71
2018-04-22T14:38:21.461Z,32.66
2018-04-22T14:40:52.121Z,32.39
2018-04-22T14:43:23.758Z,32.12
2018-04-22T14:49:07.486Z,32.44
2018-04-22T14:51:36.275Z,31.55
2018-04-22T14:54:05.134Z,31.61
2018-04-22T14:56:34.772Z,31.77
2018-04-22T14:59:03.457Z,31.91
2018-04-22T15:01:32.939Z,32.09
2018-04-22T15:04:02.906Z,32.20
2018-04-22T15:06:32.587Z,32.19
2018-04-22T15:09:01.255Z,32.14
2018-04-22T15:11:29.853Z,31.70
2018-04-22T15:13:58.645Z,31.73
2018-04-22T15:16:27.356Z,31.59
2018-04-22T15:18:56.333Z,31.69
2018-04-22T15:21:25.469Z,31.72
2018-04-22T15:23:54.144Z,31.62
2018-04-22T15:26:22.933Z,31.48
2018-04-22T15:28:51.704Z,31.09
2018-04-22T15:31:20.539Z,31.15
2018-04-22T15:33:49.654Z,31.13
2018-04-22T15:36:18.985Z,30.76
2018-04-22T15:38:48.817Z,30.60
2018-04-22T15:41:18.659Z,30.35
2018-04-22T15:43:48.545Z,29.90
2018-04-22T15:46:17.440Z,29.72
2018-04-22T15:48:47.199Z,29.69
2018-04-22T15:51:15.953Z,29.64
2018-04-22T15:53:45.399Z,29.60
2018-04-22T15:56:14.201Z,29.52
2018-04-22T15:58:42.897Z,29.50
2018-04-22T16:01:12.566Z,29.33
2018-04-22T16:03:41.729Z,29.00
2018-04-22T16:06:12.131Z,28.83
2018-04-22T16:08:41.440Z,28.63
2018-04-22T16:11:10.683Z,28.44
2018-04-22T16:13:40.123Z,28.30
2018-04-22T16:16:09.203Z,28.20
2018-04-22T16:18:38.062Z,28.07
2018-04-22T16:21:06.911Z,27.95
2018-04-22T16:23:35.579Z,27.93
2018-04-22T16:26:05.101Z,27.89
2018-04-22T16:28:33.946Z,27.78
2018-04-22T16:31:03.494Z,27.62
2018-04-22T16:33:33.768Z,27.50
2018-04-22T16:36:02.912Z,27.40
2018-04-22T16:38:32.370Z,27.24
2018-04-22T16:41:01.345Z,27.18
2018-04-22T16:43:30.081Z,26.98
2018-04-22T16:45:58.890Z,26.91
2018-04-22T16:48:27.776Z,26.78
2018-04-22T16:50:56.929Z,26.61
2018-04-22T16:53:26.104Z,26.54
2018-04-22T16:55:54.887Z,26.40
2018-04-22T16:58:23.681Z,26.30
2018-04-22T17:00:52.533Z,26.20
2018-04-22T17:03:21.405Z,26.10
2018-04-22T17:05:51.067Z,26.03
2018-04-22T17:08:20.567Z,25.87
2018-04-22T17:10:49.339Z,25.76
2018-04-22T17:13:18.196Z,25.64
2018-04-22T17:15:47.069Z,25.51
2018-04-22T17:18:17.394Z,25.34
2018-04-22T17:20:46.505Z,25.12
2018-04-22T17:23:15.645Z,24.84
2018-04-22T17:25:44.842Z,24.67
2018-04-22T17:28:14.140Z,24.29
2018-04-22T17:30:43.165Z,24.14
2018-04-22T17:33:12.806Z,23.90
2018-04-22T17:35:43.167Z,23.85
2018-04-22T17:38:12.940Z,23.77
2018-04-22T17:40:42.080Z,23.55
2018-04-22T17:43:11.003Z,23.43
2018-04-22T17:45:39.889Z,23.41
2018-04-22T17:48:08.847Z,23.20
2018-04-22T17:50:37.796Z,23.07
2018-04-22T17:53:06.862Z,22.91
2018-04-22T17:55:36.003Z,22.75
2018-04-22T17:58:05.793Z,22.67
2018-04-22T18:00:35.581Z,22.62
2018-04-22T18:03:05.584Z,22.56
2018-04-22T18:05:36.094Z,22.56
2018-04-22T18:08:05.401Z,22.48
2018-04-22T18:10:34.442Z,22.37
2018-04-22T18:13:03.383Z,22.33
2018-04-22T18:15:32.823Z,22.24
2018-04-22T18:18:02.554Z,22.10
2018-04-22T18:20:32.281Z,22.01
2018-04-22T18:23:02.114Z,21.91
2018-04-22T18:25:32.828Z,21.78
2018-04-22T18:28:02.306Z,21.70
2018-04-22T18:30:31.859Z,21.58
2018-04-22T18:33:00.838Z,21.44
2018-04-22T18:35:31.170Z,21.30
2018-04-22T18:38:01.169Z,21.28
2018-04-22T18:40:31.672Z,21.28
2018-04-22T18:43:02.475Z,21.16
2018-04-22T18:45:31.489Z,21.07
2018-04-22T18:48:01.199Z,20.86
2018-04-22T18:53:05.454Z,20.35
2018-04-22T18:55:34.562Z,20.19
2018-04-22T18:58:04.509Z,20.08
2018-04-22T19:00:33.979Z,19.89
2018-04-22T19:03:04.103Z,19.72
2018-04-22T19:05:34.358Z,19.64
2018-04-22T19:08:05.043Z,19.56
2018-04-22T19:10:34.393Z,19.37
2018-04-22T19:13:03.996Z,19.23
2018-04-22T19:15:34.560Z,19.13
2018-04-22T19:18:04.739Z,19.09
2018-04-22T19:20:35.812Z,19.10
2018-04-22T19:23:06.597Z,19.02
2018-04-22T19:25:36.419Z,18.90
2018-04-22T19:28:06.729Z,18.77
2018-04-22T19:30:41.195Z,18.68
2018-04-22T19:33:11.048Z,18.57
2018-04-22T19:35:42.277Z,18.46
2018-04-22T19:38:14.845Z,18.23
2018-04-22T19:40:44.237Z,18.18
2018-04-22T19:43:13.305Z,18.06
2018-04-22T19:45:43.004Z,18.04
2018-04-22T19:48:13.660Z,17.97
2018-04-22T19:50:45.516Z,17.86
2018-04-22T19:53:15.172Z,17.91
2018-04-22T19:55:44.398Z,17.86
2018-04-22T19:58:15.841Z,17.76
2018-04-22T20:00:45.592Z,17.73
2018-04-22T20:03:15.032Z,17.67
2018-04-22T20:05:45.367Z,17.58
2018-04-22T20:08:15.146Z,17.52
2018-04-22T20:10:44.423Z,17.56
2018-04-22T20:13:13.709Z,17.53
2018-04-22T20:18:16.702Z,17.51
2018-04-22T20:20:49.693Z,17.45
2018-04-22T20:23:20.497Z,17.33
2018-04-22T20:25:50.465Z,17.25
2018-04-22T20:28:24.393Z,17.17
2018-04-22T20:30:54.078Z,17.15
2018-04-22T20:33:24.239Z,17.06
2018-04-22T20:35:54.496Z,16.97
2018-04-22T20:38:24.095Z,16.91
2018-04-22T20:40:55.122Z,16.84
2018-04-22T20:43:24.338Z,16.78
2018-04-22T20:45:53.950Z,16.78
2018-04-22T20:48:23.145Z,16.62
2018-04-22T20:50:52.181Z,16.49
2018-04-22T20:53:21.934Z,16.52
2018-04-22T20:55:51.285Z,16.46
2018-04-22T21:00:55.683Z,16.30
2018-04-22T21:05:59.386Z,16.09
2018-04-22T21:08:28.474Z,16.00
2018-04-22T21:10:57.188Z,15.99
2018-04-22T21:13:26.909Z,15.93
2018-04-22T21:15:56.519Z,15.85
2018-04-22T21:18:25.320Z,15.80
2018-04-22T21:20:55.286Z,15.80
2018-04-22T21:23:24.885Z,15.76
2018-04-22T21:25:58.591Z,15.72
2018-04-22T21:28:29.710Z,15.69
2018-04-22T21:30:59.421Z,15.68
2018-04-22T21:33:29.200Z,15.60
2018-04-22T21:35:58.788Z,15.55
2018-04-22T21:38:27.502Z,15.49
2018-04-22T21:40:56.244Z,15.40
2018-04-22T21:46:01.211Z,15.20
2018-04-22T21:48:30.552Z,15.08
2018-04-22T21:50:59.505Z,15.02
2018-04-22T21:53:28.470Z,15.02
2018-04-22T21:55:57.374Z,14.99
2018-04-22T21:58:26.225Z,14.99
2018-04-22T22:00:55.763Z,14.94
2018-04-22T22:03:24.855Z,14.86
2018-04-22T22:05:54.940Z,14.86
2018-04-22T22:08:25.770Z,14.78
2018-04-22T22:10:55.327Z,14.70
2018-04-22T22:15:58.146Z,14.57
2018-04-22T22:18:27.188Z,14.54
2018-04-22T22:20:55.980Z,14.49
2018-04-22T22:23:24.683Z,14.42
2018-04-22T22:25:53.355Z,14.38
2018-04-22T22:28:22.684Z,14.35
2018-04-22T22:33:26.610Z,14.24
2018-04-22T22:35:55.380Z,14.14
2018-04-22T22:38:24.414Z,14.06
2018-04-22T22:40:53.595Z,14.04
2018-04-22T22:43:22.312Z,13.97
2018-04-22T22:45:50.975Z,13.91
2018-04-22T22:48:20.548Z,13.88
2018-04-22T22:50:49.370Z,13.81
2018-04-22T22:53:18.004Z,13.77
2018-04-22T22:55:46.715Z,13.69
2018-04-22T22:58:15.273Z,13.64
2018-04-22T23:00:44.020Z,13.59
2018-04-22T23:03:13.633Z,13.54
2018-04-22T23:05:42.364Z,13.49
2018-04-22T23:08:11.246Z,13.50
2018-04-22T23:10:41.599Z,13.57
2018-04-22T23:13:10.537Z,13.57
2018-04-22T23:18:12.826Z,13.46
2018-04-22T23:20:41.434Z,13.41
2018-04-22T23:23:10.121Z,13.35
2018-04-22T23:25:39.558Z,13.38
2018-04-22T23:28:08.233Z,13.37
2018-04-22T23:30:37.588Z,13.32
2018-04-22T23:33:06.477Z,13.23
2018-04-22T23:35:36.536Z,13.15
2018-04-22T23:38:05.654Z,13.08
2018-04-22T23:40:34.310Z,13.13
2018-04-22T23:43:02.911Z,13.10
2018-04-22T23:45:31.491Z,12.99
2018-04-22T23:48:00.167Z,12.86
2018-04-22T23:50:28.758Z,12.81
2018-04-22T23:52:58.674Z,12.78
2018-04-22T23:55:28.081Z,12.70
2018-04-22T23:57:56.779Z,12.65
